KUCY/UCY METAR and TAF weather

Enter ICAO airport designator
Station Type Date Time Source
KUCY METAR 2019/10/15 20:55 UTC NOAA

KUCY 152055Z AUTO 18010KT 10SM SCT018 BKN032 24/19 A2986 RMK A01


Station Type Date Time Source
KUCY Decoded METAR 2019/10/15 20:55 UTC NOAA

Station name not available
Oct 15, 2019 - 04:55 PM EDT / 2019.10.15 2055 UTC
Wind: from the S (180 degrees) at 12 MPH (10 KT):0
Visibility: 10 mile(s):0
Sky conditions: mostly cloudy
Temperature: 75 F (24 C)
Dew Point: 66 F (19 C)
Relative Humidity: 73%
Pressure (altimeter): 29.86 in. Hg (1011 hPa)
ob: KUCY 152055Z AUTO 18010KT 10SM SCT018 BKN032 24/19 A2986 RMK A01
cycle: 21

Station Type Date Time Source
KUCY TAF UTC NOAA

Error!

Example: see airport list